Greenland, MI (49929)

5:30 PM EST on February 05, 2016 (GMT -0500)
MesoWest | | Change Station
CLOSE
Current Station
Personal Weather Station
Location: Rockland, MI
Elevation: 1026 ft
Nearby Weather Stations

Elev 1026 ft 46.72 °N, 89.15 °W | Updated 40 minutes ago

Overcast
Overcast
25 °F
Feels Like 16 °F
N
9
Wind Variable Wind from South
Gusts 14.0 mph

Today
High -- | Low -- °F
--% Chance of Precip.
Yesterday
High -- | Low -- °F
Precip. -- in
Pressure 30.23 in
Visibility 10.0 miles
Clouds Mostly Cloudy 4700 ft
Overcast 9000 ft
Windchill 16 °F
Dew Point 12 °F
Humidity 56%
Rainfall in
Snow Depth Not available.
8:16 AM 6:05 PM
Waning Crescent, 9% visible
METAR KCMX 052153Z AUTO VRB03KT 10SM BKN047 OVC090 M05/M11 A3017 RMK AO2 SLP237 T10501111 TSNO
Pressure 30.23 in
Visibility 10.0 miles
Clouds Mostly Cloudy 4700 ft
Overcast 9000 ft
Windchill 16 °F
Dew Point 12 °F
Humidity 56%
Rainfall in
Snow Depth Not available.
8:16 AM 6:05 PM
Waning Crescent, 9% visible
METAR KCMX 052153Z AUTO VRB03KT 10SM BKN047 OVC090 M05/M11 A3017 RMK AO2 SLP237 T10501111 TSNO

10-Day Weather Forecast

Almanac

Astronomy

Feb. 05, 2016 Rise Set
Actual Time
Civil Twilight
Nautical Twilight
Astronomical Twilight
Moon
Length of Visible Light
Length of Day
Tomorrow will be .
, % of the Moon is Illuminated

Today's Extremes

State Highs State Lows

Community

WunderPhotos

Upload Photos

1,890,878 photos uploaded!

WunderBlog® & News

Nearby

Air Quality

  Air Quality AQ Index Pollutant
Not available.

Snow Depth

Station Depth Elevation

Earthquake Activity

City Distance Mag. Time & Date
Minimum magnitude displayed is 2.5.

Coastal Water Temperatures

Place Temperature

Stations

Nearby Weather Stations

Station Location Temp. Windchill Dew Point Humidity Wind Precip. Elev Updated Type
                   

Watches & Warnings

There are currently no watches in effect.